KREO/REO METAR and TAF weather

Enter ICAO airport designator
Station Type Date Time Source
KREO METAR 2019/02/16 03:52 UTC NOAA

KREO 160352Z AUTO 19010KT M01/M08 A2973 RMK AO1 SLP089 T10061083


Station Type Date Time Source
KREO Decoded METAR 2019/02/16 03:52 UTC NOAA

ROME, OR, United States (KREO) 42-35N 117-52W 1235M
Feb 15, 2019 - 10:52 PM EST / 2019.02.16 0352 UTC
Wind: from the S (190 degrees) at 12 MPH (10 KT):0
Temperature: 30.9 F (-0.6 C)
Windchill: 21 F (-6 C):1
Dew Point: 17.1 F (-8.3 C)
Relative Humidity: 55%
Pressure (altimeter): 29.73 in. Hg (1006 hPa)
ob: KREO 160352Z AUTO 19010KT M01/M08 A2973 RMK AO1 SLP089 T10061083
cycle: 4

Station Type Date Time Source
KREO TAF UTC NOAA

Error!


Example: see airport list